Time;durP1;ratioP1;P1;durP2;ratioP2;P2;SDS_P1;SDS_P2;PMS_P1;PMS_P2;Temp;Humidity;BMP_temperature;BMP_pressure;BME280_temperature;BME280_humidity;BME280_pressure;Samples;Min_cycle;Max_cycle;Signal;HPM_P1;HPM_P2
2022/10/07 00:01:21;;;;;;;14.75;3.08;;;;;;;13.94;100.00;99367.06;5064251;28;20027;-86
2022/10/07 00:03:49;;;;;;;9.18;2.55;;;;;;;13.72;100.00;99363.88;5045338;28;20033;-86
2022/10/07 00:06:21;;;;;;;14.27;3.35;;;;;;;13.65;100.00;99353.34;5062838;28;20029;-86
2022/10/07 00:08:49;;;;;;;9.00;2.47;;;;;;;13.67;100.00;99340.78;5065166;28;20094;-85
2022/10/07 00:11:25;;;;;;;5.47;2.55;;;;;;;13.59;100.00;99334.91;5057994;28;20124;-85
2022/10/07 00:13:53;;;;;;;11.23;2.30;;;;;;;13.67;100.00;99335.50;5056522;28;20037;-86
2022/10/07 00:16:23;;;;;;;9.70;2.67;;;;;;;13.64;100.00;99332.47;5065122;28;20031;-86
2022/10/07 00:18:50;;;;;;;17.02;3.08;;;;;;;13.48;100.00;99334.50;5057327;28;20052;-88
2022/10/07 00:21:18;;;;;;;13.48;3.00;;;;;;;13.60;100.00;99333.91;5062274;28;20398;-86
2022/10/07 00:23:46;;;;;;;12.07;2.78;;;;;;;13.56;100.00;99344.03;5065924;28;20083;-87
2022/10/07 00:26:17;;;;;;;14.23;2.78;;;;;;;13.46;100.00;99318.09;5064586;28;20037;-86
2022/10/07 00:28:43;;;;;;;11.10;2.97;;;;;;;13.35;100.00;99337.13;5065920;28;20121;-87
2022/10/07 00:31:12;;;;;;;9.40;2.50;;;;;;;13.47;100.00;99324.19;5063449;28;20053;-85
2022/10/07 00:33:38;;;;;;;11.98;2.45;;;;;;;13.47;100.00;99340.00;5060219;28;20390;-85
2022/10/07 00:36:10;;;;;;;13.27;2.47;;;;;;;13.59;100.00;99342.81;5063337;28;20043;-86
2022/10/07 00:38:36;;;;;;;10.45;3.63;;;;;;;13.68;100.00;99352.13;5061723;28;20379;-85
2022/10/07 00:41:01;;;;;;;13.50;2.92;;;;;;;13.53;100.00;99321.50;5066250;28;20029;-85
2022/10/07 00:43:30;;;;;;;8.13;2.20;;;;;;;13.67;100.00;99329.41;5064787;28;20029;-86
2022/10/07 00:46:06;;;;;;;16.90;2.50;;;;;;;13.77;100.00;99337.72;5059200;28;20086;-86
2022/10/07 00:48:35;;;;;;;12.85;2.55;;;;;;;13.76;100.00;99336.09;5064377;28;20032;-85
2022/10/07 00:51:01;;;;;;;17.65;2.50;;;;;;;13.73;100.00;99312.72;5066259;28;20482;-85
2022/10/07 00:53:32;;;;;;;15.15;2.85;;;;;;;13.56;100.00;99318.50;5063356;28;20032;-85
2022/10/07 00:56:01;;;;;;;15.07;2.53;;;;;;;13.45;100.00;99315.66;5065192;28;20052;-85
2022/10/07 00:58:31;;;;;;;8.90;2.38;;;;;;;13.39;100.00;99290.91;5062612;28;20029;-88
2022/10/07 01:00:57;;;;;;;13.77;2.35;;;;;;;13.45;100.00;99307.75;5058910;28;20025;-85
2022/10/07 01:03:23;;;;;;;12.30;3.45;;;;;;;13.17;100.00;99314.88;5062979;28;20021;-85
2022/10/07 01:05:49;;;;;;;10.57;2.58;;;;;;;13.20;100.00;99290.75;5064174;28;20037;-85
2022/10/07 01:08:16;;;;;;;8.85;2.60;;;;;;;13.09;100.00;99294.00;5061443;28;20040;-86
2022/10/07 01:11:12;;;;;;;15.40;2.67;;;;;;;13.29;100.00;99297.41;5060950;28;20020;-85
2022/10/07 01:14:10;;;;;;;12.35;3.75;;;;;;;13.17;100.00;99299.06;5060711;28;20437;-85
2022/10/07 01:16:36;;;;;;;15.38;2.78;;;;;;;13.35;100.00;99294.97;5064684;28;20047;-85
2022/10/07 01:19:41;;;;;;;14.13;3.25;;;;;;;13.32;100.00;99282.19;5061324;28;20028;-85
2022/10/07 01:22:32;;;;;;;11.73;2.83;;;;;;;13.31;100.00;99280.56;5027352;28;20111;-86
2022/10/07 01:25:36;;;;;;;9.82;2.47;;;;;;;13.24;100.00;99284.03;5055482;28;20040;-86
2022/10/07 01:28:37;;;;;;;15.82;2.50;;;;;;;13.02;100.00;99248.41;5053747;28;20044;-85
2022/10/07 01:31:06;;;;;;;16.35;2.47;;;;;;;13.37;100.00;99269.22;5053338;28;20120;-86
2022/10/07 01:33:34;;;;;;;12.85;2.20;;;;;;;13.43;100.00;99266.56;5064798;28;20421;-85
2022/10/07 01:36:21;;;;;;;16.35;3.20;;;;;;;13.45;100.00;99262.91;5063481;28;20564;-84
2022/10/07 01:38:52;;;;;;;13.02;2.70;;;;;;;13.23;100.00;99242.88;5057978;28;20052;-86
2022/10/07 01:41:20;;;;;;;14.38;2.47;;;;;;;13.46;100.00;99249.53;5066020;28;20078;-84
2022/10/07 01:43:47;;;;;;;14.45;2.47;;;;;;;13.37;100.00;99254.19;5062155;28;20024;-85
2022/10/07 01:46:20;;;;;;;13.93;2.92;;;;;;;13.10;100.00;99229.72;5044139;28;20039;-86
2022/10/07 01:48:46;;;;;;;13.63;2.40;;;;;;;13.20;100.00;99230.13;5065828;28;20086;-86
2022/10/07 01:51:14;;;;;;;16.02;3.47;;;;;;;13.23;100.00;99234.97;5062512;28;20390;-85
2022/10/07 01:53:48;;;;;;;9.60;2.40;;;;;;;13.19;100.00;99232.94;5060723;28;20032;-85
2022/10/07 01:56:36;;;;;;;8.05;2.25;;;;;;;13.39;100.00;99227.63;5056636;28;20355;-86
2022/10/07 01:59:20;;;;;;;10.82;2.72;;;;;;;13.26;100.00;99228.47;5061068;28;20415;-85
2022/10/07 02:02:03;;;;;;;9.52;2.63;;;;;;;13.14;100.00;99209.84;5065101;28;20062;-85
2022/10/07 02:05:02;;;;;;;10.85;2.00;;;;;;;13.41;100.00;99212.41;5053335;28;20056;-85
2022/10/07 02:07:40;;;;;;;16.60;2.58;;;;;;;13.16;100.00;99191.19;5059519;28;20037;-84
2022/10/07 02:10:14;;;;;;;13.77;2.53;;;;;;;13.17;100.00;99198.09;5052739;28;20048;-86
2022/10/07 02:13:02;;;;;;;16.58;2.70;;;;;;;13.44;100.00;99198.84;5062072;28;20028;-87
2022/10/07 02:15:43;;;;;;;12.10;2.58;;;;;;;13.48;100.00;99188.69;5061778;28;20029;-86
2022/10/07 02:18:14;;;;;;;17.30;2.47;;;;;;;13.37;100.00;99184.84;5061653;28;20041;-85
2022/10/07 02:20:42;;;;;;;12.40;4.15;;;;;;;13.32;100.00;99174.94;5057761;28;20028;-86
2022/10/07 02:23:11;;;;;;;14.57;3.50;;;;;;;13.26;100.00;99175.75;5063129;28;20033;-85
2022/10/07 02:25:45;;;;;;;15.93;2.35;;;;;;;13.05;100.00;99153.91;5062843;28;20036;-86
2022/10/07 02:28:13;;;;;;;13.27;2.05;;;;;;;13.11;100.00;99157.56;5043471;28;20045;-87
2022/10/07 02:30:42;;;;;;;8.98;2.53;;;;;;;13.09;100.00;99143.78;5059823;28;20060;-86
2022/10/07 02:33:09;;;;;;;9.73;2.72;;;;;;;13.13;100.00;99152.88;5059011;28;20044;-87
2022/10/07 02:35:46;;;;;;;9.73;2.60;;;;;;;13.04;100.00;99138.34;5056048;28;20391;-87
2022/10/07 02:38:15;;;;;;;10.30;3.00;;;;;;;12.99;100.00;99133.69;5057690;28;20025;-88
2022/10/07 02:40:57;;;;;;;12.35;3.63;;;;;;;12.81;100.00;99150.16;5058592;28;20033;-87
2022/10/07 02:43:49;;;;;;;9.93;2.38;;;;;;;12.81;100.00;99147.53;5062579;28;20119;-87
2022/10/07 02:46:21;;;;;;;16.27;3.63;;;;;;;12.98;100.00;99130.25;5063684;28;20107;-88
2022/10/07 02:48:59;;;;;;;10.52;2.50;;;;;;;13.04;100.00;99125.16;5059543;28;20465;-88
2022/10/07 02:51:35;;;;;;;13.18;2.83;;;;;;;13.08;100.00;99114.00;5062594;28;20032;-86
2022/10/07 02:54:02;;;;;;;12.63;2.42;;;;;;;13.02;100.00;99135.09;5060014;28;20764;-86
2022/10/07 02:56:31;;;;;;;9.75;2.70;;;;;;;12.86;100.00;99119.53;5056627;28;20520;-86
2022/10/07 02:59:00;;;;;;;15.73;2.92;;;;;;;13.09;100.00;99126.16;5059759;28;20024;-86
2022/10/07 03:01:30;;;;;;;8.98;2.65;;;;;;;13.14;100.00;99121.06;5055689;28;20051;-86
2022/10/07 03:03:56;;;;;;;12.43;3.03;;;;;;;12.99;100.00;99108.16;5058797;28;20025;-85
2022/10/07 03:06:23;;;;;;;11.43;3.00;;;;;;;13.02;100.00;99104.28;5055127;28;20072;-86
2022/10/07 03:08:50;;;;;;;16.60;2.70;;;;;;;13.09;100.00;99104.25;5059651;28;20065;-87
2022/10/07 03:11:15;;;;;;;14.65;3.45;;;;;;;12.93;100.00;99106.34;5060722;28;20075;-86
2022/10/07 03:13:41;;;;;;;9.57;2.78;;;;;;;12.96;100.00;99095.38;5061183;28;20032;-86
2022/10/07 03:16:07;;;;;;;10.63;2.83;;;;;;;12.92;100.00;99091.53;5062314;28;20103;-85
2022/10/07 03:18:33;;;;;;;13.30;3.47;;;;;;;13.00;100.00;99088.69;5056548;28;20136;-87
2022/10/07 03:20:59;;;;;;;7.35;2.42;;;;;;;12.68;100.00;99070.16;5056981;28;20107;-84
2022/10/07 03:23:27;;;;;;;12.13;2.70;;;;;;;12.93;100.00;99098.44;5064683;28;20056;-87
2022/10/07 03:25:55;;;;;;;9.93;2.40;;;;;;;12.92;100.00;99078.38;5059501;28;20035;-87
2022/10/07 03:28:23;;;;;;;8.45;2.72;;;;;;;12.96;100.00;99095.38;5062178;28;20024;-86
2022/10/07 03:30:49;;;;;;;14.90;2.85;;;;;;;12.76;100.00;99082.28;5055474;28;20463;-86
2022/10/07 03:33:17;;;;;;;13.48;2.78;;;;;;;12.88;100.00;99064.00;5061741;28;20083;-87
2022/10/07 03:35:43;;;;;;;13.15;2.60;;;;;;;12.79;100.00;99073.97;5064882;28;20360;-85
2022/10/07 03:38:09;;;;;;;8.85;2.40;;;;;;;12.95;100.00;99079.78;5059279;28;20094;-81
2022/10/07 03:40:39;;;;;;;10.90;2.70;;;;;;;12.79;100.00;99066.06;5066269;28;20040;-82
2022/10/07 03:43:06;;;;;;;7.65;2.53;;;;;;;12.98;100.00;99069.66;5059380;28;20025;-82
2022/10/07 03:45:36;;;;;;;12.95;3.50;;;;;;;12.80;100.00;99056.34;5069047;28;20060;-81
2022/10/07 03:48:02;;;;;;;9.70;2.70;;;;;;;12.85;100.00;99069.69;5057079;28;20471;-82
2022/10/07 03:50:28;;;;;;;15.43;3.00;;;;;;;12.76;100.00;99070.94;5058730;28;20474;-81
2022/10/07 03:52:55;;;;;;;15.05;3.20;;;;;;;12.72;100.00;99065.28;5057587;28;20471;-82
2022/10/07 03:55:21;;;;;;;14.43;3.65;;;;;;;12.73;100.00;99058.19;5064474;28;20032;-81
2022/10/07 03:57:48;;;;;;;13.30;2.95;;;;;;;12.81;100.00;99066.66;5056801;28;20029;-84
2022/10/07 04:00:19;;;;;;;12.00;2.75;;;;;;;12.62;100.00;99055.19;5065634;28;20037;-83
2022/10/07 04:02:46;;;;;;;11.43;3.45;;;;;;;12.76;100.00;99060.41;5065741;28;20040;-83
2022/10/07 04:05:17;;;;;;;11.35;3.13;;;;;;;12.75;100.00;99056.16;5045155;28;20078;-83
2022/10/07 04:07:47;;;;;;;16.25;2.80;;;;;;;12.82;100.00;99065.66;5066645;28;20025;-84
2022/10/07 04:10:15;;;;;;;11.30;2.53;;;;;;;12.65;100.00;99070.56;5060908;28;20032;-84
2022/10/07 04:12:42;;;;;;;14.73;3.47;;;;;;;12.71;100.00;99067.09;5064995;28;20032;-82
2022/10/07 04:15:12;;;;;;;18.02;3.67;;;;;;;12.73;100.00;99068.72;5063835;28;20086;-83
2022/10/07 04:17:38;;;;;;;14.15;2.85;;;;;;;12.65;100.00;99067.94;5059064;28;20122;-82
2022/10/07 04:20:04;;;;;;;14.68;3.15;;;;;;;12.51;100.00;99058.44;5064943;28;20514;-82
2022/10/07 04:22:30;;;;;;;8.10;2.63;;;;;;;12.71;100.00;99047.88;5059508;28;20128;-83
2022/10/07 04:27:40;;;;;;;13.65;3.80;;;;;;;12.57;100.00;99036.56;5060415;28;20028;-83
2022/10/07 04:30:06;;;;;;;13.68;2.75;;;;;;;12.55;100.00;99042.03;5063063;28;20391;-84
2022/10/07 04:32:31;;;;;;;8.95;2.72;;;;;;;12.47;100.00;99028.28;5063160;28;20502;-84
2022/10/07 04:34:57;;;;;;;13.50;2.53;;;;;;;12.41;100.00;99022.84;5062984;28;20033;-83
2022/10/07 04:37:23;;;;;;;14.05;3.13;;;;;;;12.20;100.00;99021.25;5057719;28;20533;-84
2022/10/07 04:39:49;;;;;;;12.07;2.78;;;;;;;12.24;100.00;99016.41;5043420;28;20029;-83
2022/10/07 04:45:00;;;;;;;15.68;3.75;;;;;;;12.23;100.00;98993.75;5061570;28;20056;-83
2022/10/07 04:47:26;;;;;;;14.88;4.05;;;;;;;12.36;100.00;99009.47;5056662;28;20024;-84
2022/10/07 04:49:54;;;;;;;11.77;2.88;;;;;;;12.16;100.00;99008.72;5056601;28;20079;-83
2022/10/07 04:52:19;;;;;;;8.77;2.47;;;;;;;12.36;100.00;99016.56;5059816;28;20047;-83
2022/10/07 04:54:45;;;;;;;16.08;2.83;;;;;;;12.39;100.00;99016.97;5059774;28;20033;-82
2022/10/07 04:57:12;;;;;;;9.35;2.38;;;;;;;12.30;100.00;99020.84;5059484;28;20429;-83
2022/10/07 04:59:38;;;;;;;10.60;2.88;;;;;;;12.40;100.00;99013.34;5058436;28;20028;-84
2022/10/07 05:02:04;;;;;;;9.95;2.70;;;;;;;12.19;100.00;99003.84;5065158;28;20475;-83
2022/10/07 05:04:30;;;;;;;11.13;2.60;;;;;;;12.19;100.00;98985.44;5064520;28;20031;-84
2022/10/07 05:06:55;;;;;;;12.43;2.67;;;;;;;12.26;100.00;98988.06;5044981;28;20475;-83
2022/10/07 05:09:21;;;;;;;23.60;3.13;;;;;;;12.34;100.00;98985.19;5044610;28;20039;-82
2022/10/07 05:11:47;;;;;;;12.82;2.95;;;;;;;12.34;100.00;98979.13;5061234;28;20033;-82
2022/10/07 05:14:13;;;;;;;12.48;2.53;;;;;;;12.37;100.00;98978.72;5070114;28;20036;-83
2022/10/07 05:16:40;;;;;;;10.80;2.55;;;;;;;12.28;100.00;98970.22;5062740;28;20037;-84
2022/10/07 05:19:05;;;;;;;7.38;2.67;;;;;;;12.19;100.00;98979.38;5060552;28;20029;-83
2022/10/07 05:21:34;;;;;;;18.42;3.13;;;;;;;12.27;100.00;98971.25;5062918;28;20031;-82
2022/10/07 05:23:59;;;;;;;17.27;2.67;;;;;;;12.26;100.00;98951.22;5058550;28;20449;-83
2022/10/07 05:26:26;;;;;;;10.45;2.80;;;;;;;12.11;100.00;98960.16;5059475;28;20073;-82
2022/10/07 05:28:51;;;;;;;16.45;2.55;;;;;;;12.27;100.00;98958.09;5042305;28;20091;-82
2022/10/07 05:31:17;;;;;;;15.05;2.80;;;;;;;12.19;100.00;98945.19;5057414;28;20063;-83
2022/10/07 05:33:43;;;;;;;11.40;2.78;;;;;;;12.19;100.00;98938.06;5063059;28;20041;-82
2022/10/07 05:36:10;;;;;;;11.30;2.42;;;;;;;12.17;100.00;98957.72;5063529;28;20044;-82
2022/10/07 05:38:36;;;;;;;11.30;2.40;;;;;;;12.18;100.00;98954.88;5063411;28;20035;-82
2022/10/07 05:41:04;;;;;;;12.45;2.53;;;;;;;12.22;100.00;98960.53;5069186;28;20028;-83
2022/10/07 05:43:33;;;;;;;11.68;2.60;;;;;;;12.24;100.00;98940.09;5062337;28;20029;-83
2022/10/07 05:46:05;;;;;;;15.35;3.00;;;;;;;12.15;100.00;98939.50;5061200;28;20025;-83
2022/10/07 05:48:32;;;;;;;12.43;2.60;;;;;;;12.12;100.00;98951.25;5063231;28;20111;-83
2022/10/07 05:50:58;;;;;;;11.43;2.85;;;;;;;12.23;100.00;98946.38;5054528;28;20063;-83
2022/10/07 05:53:26;;;;;;;14.52;2.55;;;;;;;12.20;100.00;98939.69;5059831;28;20390;-83
2022/10/07 05:55:52;;;;;;;17.92;3.20;;;;;;;12.17;100.00;98947.19;5058963;28;20033;-83
2022/10/07 05:58:20;;;;;;;10.10;3.00;;;;;;;12.09;100.00;98938.50;5062604;28;20046;-84
2022/10/07 06:00:58;;;;;;;10.40;2.38;;;;;;;12.11;100.00;98944.38;5055993;28;20028;-82
2022/10/07 06:03:25;;;;;;;13.48;2.70;;;;;;;12.13;100.00;98952.06;5064486;28;20052;-84
2022/10/07 06:05:51;;;;;;;11.82;3.15;;;;;;;12.26;100.00;98952.00;5063466;28;20504;-84
2022/10/07 06:08:18;;;;;;;13.75;2.95;;;;;;;12.28;100.00;98959.72;5058987;28;20036;-82
2022/10/07 06:13:29;;;;;;;16.05;3.13;;;;;;;12.35;100.00;98952.59;5061644;28;20103;-83
2022/10/07 06:16:02;;;;;;;18.30;2.63;;;;;;;12.24;100.00;98932.19;5058652;28;20052;-83
2022/10/07 06:18:28;;;;;;;13.77;2.72;;;;;;;12.31;100.00;98935.59;5061538;28;20099;-81
2022/10/07 06:20:56;;;;;;;12.05;2.35;;;;;;;12.27;100.00;98947.56;5059972;28;20029;-81
2022/10/07 06:23:22;;;;;;;15.70;3.05;;;;;;;12.23;100.00;98938.47;5056884;28;20475;-84
2022/10/07 06:26:10;;;;;;;8.18;2.60;;;;;;;12.25;100.00;98934.59;5059524;28;20043;-82
2022/10/07 06:28:38;;;;;;;17.85;2.92;;;;;;;12.27;100.00;98952.84;5059022;28;20074;-83
2022/10/07 06:31:12;;;;;;;8.57;3.00;;;;;;;12.11;100.00;98931.22;5062820;28;20047;-82
2022/10/07 06:33:38;;;;;;;15.15;2.65;;;;;;;12.07;100.00;98926.56;5057145;28;20078;-83
2022/10/07 06:36:04;;;;;;;8.80;2.50;;;;;;;12.12;100.00;98924.94;5064083;28;20111;-84
2022/10/07 06:38:31;;;;;;;15.27;3.45;;;;;;;12.17;100.00;98936.66;5060482;28;20027;-84
2022/10/07 06:41:02;;;;;;;14.90;3.17;;;;;;;12.29;100.00;98921.84;5059660;28;20043;-83
2022/10/07 06:43:29;;;;;;;11.90;2.78;;;;;;;12.41;100.00;98929.91;5058232;28;20547;-83
2022/10/07 06:46:00;;;;;;;11.20;3.15;;;;;;;12.34;100.00;98921.22;5062027;28;20043;-83
2022/10/07 06:48:27;;;;;;;13.07;3.00;;;;;;;12.38;100.00;98919.78;5061653;28;20024;-84
2022/10/07 06:50:54;;;;;;;16.38;2.92;;;;;;;12.45;100.00;98928.44;5066097;28;20395;-83
2022/10/07 06:53:20;;;;;;;13.35;2.75;;;;;;;12.37;100.00;98911.06;5064047;28;20033;-87
2022/10/07 06:55:50;;;;;;;8.98;2.40;;;;;;;12.52;100.00;98939.78;5065277;28;20134;-85
2022/10/07 06:58:20;;;;;;;14.60;3.22;;;;;;;12.47;100.00;98930.88;5052959;28;20033;-88
2022/10/07 07:00:51;;;;;;;9.00;2.60;;;;;;;12.43;100.00;98915.53;5063378;28;20041;-84
2022/10/07 07:03:16;;;;;;;11.93;2.75;;;;;;;12.68;100.00;98932.41;5056715;28;20700;-86
2022/10/07 07:05:44;;;;;;;20.35;3.35;;;;;;;12.66;100.00;98934.44;5065796;28;20029;-85
2022/10/07 07:08:10;;;;;;;11.35;2.75;;;;;;;12.83;100.00;98925.03;5063257;28;20033;-86
2022/10/07 07:10:37;;;;;;;15.90;3.25;;;;;;;12.81;100.00;98915.72;5059197;28;20104;-80
2022/10/07 07:13:07;;;;;;;15.15;3.00;;;;;;;12.95;100.00;98916.44;5055085;28;20032;-81
2022/10/07 07:15:34;;;;;;;13.07;2.78;;;;;;;12.81;100.00;98915.72;5058821;28;20032;-81
2022/10/07 07:17:59;;;;;;;13.13;2.78;;;;;;;13.05;100.00;98922.03;5065522;28;20491;-81
2022/10/07 07:20:25;;;;;;;14.77;2.92;;;;;;;13.26;100.00;98918.25;5055871;28;20063;-84
2022/10/07 07:22:53;;;;;;;17.65;3.10;;;;;;;13.54;100.00;98911.75;5057936;28;20078;-83
2022/10/07 07:25:19;;;;;;;14.27;3.17;;;;;;;13.65;100.00;98926.03;5061294;28;20060;-81
2022/10/07 07:27:47;;;;;;;9.27;2.80;;;;;;;13.69;100.00;98916.69;5042848;28;20056;-83
2022/10/07 07:30:13;;;;;;;13.93;2.90;;;;;;;13.58;100.00;98909.50;5064964;28;20025;-82
2022/10/07 07:32:39;;;;;;;13.23;3.30;;;;;;;13.65;100.00;98896.25;5066203;28;20466;-83
2022/10/07 07:35:06;;;;;;;10.30;2.88;;;;;;;13.63;100.00;98911.47;5069917;28;20028;-84
2022/10/07 07:37:32;;;;;;;16.92;3.13;;;;;;;13.61;100.00;98900.34;5060854;28;20056;-84
2022/10/07 07:39:58;;;;;;;10.18;3.13;;;;;;;13.57;100.00;98903.41;5063970;28;20475;-84
2022/10/07 07:42:24;;;;;;;16.75;3.17;;;;;;;13.60;100.00;98875.00;5061739;28;20064;-84
2022/10/07 07:44:50;;;;;;;10.07;3.05;;;;;;;13.56;100.00;98901.00;5064288;28;20033;-84
2022/10/07 07:47:15;;;;;;;14.65;3.83;;;;;;;13.40;100.00;98881.25;5061551;28;20038;-84
2022/10/07 07:49:42;;;;;;;13.10;3.50;;;;;;;13.71;100.00;98895.34;5067078;28;20028;-82
2022/10/07 07:52:08;;;;;;;10.15;3.10;;;;;;;14.06;100.00;98888.72;5059530;28;20029;-83
2022/10/07 07:54:36;;;;;;;11.10;2.70;;;;;;;14.10;100.00;98876.69;5062924;28;20082;-84
2022/10/07 07:57:02;;;;;;;7.70;2.72;;;;;;;14.06;100.00;98880.81;5068662;28;20047;-83
2022/10/07 07:59:31;;;;;;;10.98;3.00;;;;;;;14.34;100.00;98879.44;5063089;28;20101;-83
2022/10/07 08:01:57;;;;;;;11.80;2.72;;;;;;;14.64;100.00;98868.88;5055893;28;20059;-83
2022/10/07 08:04:24;;;;;;;8.93;3.15;;;;;;;14.85;100.00;98848.25;5066684;28;20059;-86
2022/10/07 08:06:51;;;;;;;7.07;2.30;;;;;;;14.95;100.00;98860.91;5061808;28;20028;-85
2022/10/07 08:09:16;;;;;;;11.98;2.20;;;;;;;15.11;100.00;98846.22;5062040;28;20032;-85
2022/10/07 08:11:44;;;;;;;10.98;2.67;;;;;;;14.91;100.00;98843.91;5060497;28;20078;-85
2022/10/07 08:14:14;;;;;;;14.68;2.40;;;;;;;14.75;100.00;98853.31;5061421;28;20033;-84
2022/10/07 08:16:43;;;;;;;10.73;3.00;;;;;;;14.40;100.00;98837.09;5064890;28;20028;-86
2022/10/07 08:19:11;;;;;;;13.18;2.92;;;;;;;14.35;100.00;98850.19;5065989;28;20043;-85
2022/10/07 08:21:37;;;;;;;15.00;3.10;;;;;;;14.48;100.00;98843.91;5061145;28;20052;-85
2022/10/07 08:24:04;;;;;;;9.40;3.20;;;;;;;14.44;100.00;98842.72;5053756;28;20101;-83
2022/10/07 08:26:32;;;;;;;7.82;2.60;;;;;;;14.42;100.00;98813.09;5054088;28;20048;-84
2022/10/07 08:29:00;;;;;;;14.60;3.28;;;;;;;14.56;100.00;98821.66;5059879;28;20029;-85
2022/10/07 08:31:27;;;;;;;16.08;3.20;;;;;;;14.34;100.00;98827.41;5064510;28;20081;-84
2022/10/07 08:33:54;;;;;;;13.10;3.40;;;;;;;14.44;100.00;98821.59;5066457;28;20161;-84
2022/10/07 08:36:22;;;;;;;7.32;2.10;;;;;;;14.36;100.00;98809.53;5061660;28;20021;-84
2022/10/07 08:38:49;;;;;;;12.50;3.03;;;;;;;14.43;100.00;98823.44;5064937;28;20115;-85
2022/10/07 08:41:49;;;;;;;12.57;2.90;;;;;;;14.41;100.00;98812.31;5058631;28;20039;-84
2022/10/07 08:44:17;;;;;;;16.20;3.10;;;;;;;14.35;100.00;98812.41;5062070;28;20027;-84
2022/10/07 08:47:08;;;;;;;11.30;2.72;;;;;;;14.65;100.00;98819.50;5060150;28;20479;-85
2022/10/07 08:50:12;;;;;;;14.73;2.90;;;;;;;14.68;100.00;98842.81;5060739;28;20075;-87
2022/10/07 08:52:40;;;;;;;8.15;2.88;;;;;;;14.82;100.00;98828.38;5060380;28;20125;-87
2022/10/07 08:55:28;;;;;;;15.52;2.90;;;;;;;14.63;100.00;98824.16;5061003;28;20116;-86
2022/10/07 08:58:08;;;;;;;13.20;2.75;;;;;;;15.23;100.00;98817.97;5064548;28;20032;-86
2022/10/07 09:00:58;;;;;;;9.02;2.50;;;;;;;14.96;100.00;98818.41;5060954;28;20502;-85
2022/10/07 09:03:40;;;;;;;10.35;2.28;;;;;;;14.62;100.00;98780.31;5048121;28;20478;-85
2022/10/07 09:06:14;;;;;;;9.33;2.33;;;;;;;15.20;100.00;98802.56;5060240;28;20108;-85
2022/10/07 09:08:46;;;;;;;9.60;2.72;;;;;;;15.27;100.00;98810.38;5066038;28;20086;-84
2022/10/07 09:11:18;;;;;;;8.50;2.83;;;;;;;15.16;100.00;98803.25;5056421;28;20044;-86
2022/10/07 09:13:52;;;;;;;13.37;2.83;;;;;;;15.33;100.00;98800.69;5067347;28;20032;-86
2022/10/07 09:16:37;;;;;;;;;;;;;;;15.42;100.00;98810.69;5060926;28;20065;-88
2022/10/07 09:19:04;;;;;;;12.32;2.45;;;;;;;15.46;100.00;98794.38;5062636;28;19974;-87
2022/10/07 09:21:41;;;;;;;12.38;2.85;;;;;;;15.70;100.00;98813.63;5062954;28;20033;-88
2022/10/07 09:24:23;;;;;;;10.25;2.50;;;;;;;15.84;100.00;98811.56;5059924;28;20039;-86
2022/10/07 09:26:56;;;;;;;12.65;2.90;;;;;;;16.02;100.00;98821.19;5055751;28;20082;-86
2022/10/07 09:29:25;;;;;;;9.90;2.78;;;;;;;16.06;100.00;98782.59;5063689;28;20028;-85
2022/10/07 09:31:52;;;;;;;12.52;2.88;;;;;;;16.43;100.00;98797.28;5046496;28;20071;-87
2022/10/07 09:34:27;;;;;;;6.75;2.33;;;;;;;15.91;100.00;98800.84;5061375;28;20032;-85
2022/10/07 09:37:07;;;;;;;10.57;2.75;;;;;;;15.75;100.00;98787.28;5056419;28;20032;-87
2022/10/07 09:39:33;;;;;;;7.53;2.40;;;;;;;15.79;100.00;98788.44;5057332;28;20040;-86
2022/10/07 09:42:00;;;;;;;11.82;2.70;;;;;;;15.34;100.00;98770.59;5061680;28;20470;-87
2022/10/07 09:44:27;;;;;;;9.40;2.28;;;;;;;15.37;100.00;98775.41;5059526;28;20025;-86
2022/10/07 09:46:58;;;;;;;10.95;2.63;;;;;;;15.67;100.00;98787.66;5057703;28;20039;-87
2022/10/07 09:49:27;;;;;;;12.88;2.70;;;;;;;15.58;100.00;98781.91;5064909;28;20048;-87
2022/10/07 09:52:22;;;;;;;10.70;3.22;;;;;;;15.77;100.00;98761.41;5061085;28;20029;-85
2022/10/07 09:54:52;;;;;;;10.15;2.50;;;;;;;15.75;100.00;98747.59;5064250;28;20099;-86
2022/10/07 09:57:33;;;;;;;12.73;2.58;;;;;;;15.80;100.00;98752.97;5064154;28;20033;-85
2022/10/07 10:00:11;;;;;;;10.38;2.92;;;;;;;15.71;100.00;98743.78;5057494;28;20025;-86
2022/10/07 10:02:37;;;;;;;6.30;2.20;;;;;;;15.47;100.00;98740.44;5057529;28;20060;-85
2022/10/07 10:05:03;;;;;;;12.07;2.53;;;;;;;15.52;100.00;98728.09;5064161;28;20450;-88
2022/10/07 10:07:35;;;;;;;8.77;2.42;;;;;;;15.42;100.00;98726.06;5060230;28;20159;-86
2022/10/07 10:10:15;;;;;;;10.20;2.95;;;;;;;15.67;100.00;98721.50;5058513;28;20047;-86
2022/10/07 10:12:46;;;;;;;8.15;2.42;;;;;;;15.83;100.00;98725.25;5060424;28;20130;-87
2022/10/07 10:15:35;;;;;;;5.97;2.25;;;;;;;15.87;100.00;98710.50;5057790;28;20036;-86
2022/10/07 10:18:02;;;;;;;11.85;2.85;;;;;;;15.74;100.00;98722.19;5048603;28;20077;-85
2022/10/07 10:20:43;;;;;;;9.20;1.92;;;;;;;15.66;100.00;98733.13;5061384;28;20576;-87
2022/10/07 10:23:24;;;;;;;13.15;3.08;;;;;;;15.48;100.00;98724.31;5054800;28;20033;-87
2022/10/07 10:26:24;;;;;;;13.82;3.00;;;;;;;15.30;100.00;98732.41;5058672;28;20033;-85
2022/10/07 10:29:05;;;;;;;8.40;2.63;;;;;;;15.11;100.00;98728.09;5044827;28;20451;-86
2022/10/07 10:31:56;;;;;;;10.20;3.28;;;;;;;15.01;100.00;98722.56;5066185;28;20536;-85
2022/10/07 10:34:51;;;;;;;10.13;2.28;;;;;;;15.01;100.00;98709.34;5055416;28;20101;-88
2022/10/07 10:38:05;;;;;;;8.10;3.13;;;;;;;15.30;100.00;98727.13;5023740;28;20553;-88
2022/10/07 10:41:34;;;;;;;8.75;2.80;;;;;;;15.32;100.00;98706.53;5033668;28;20048;-86
2022/10/07 10:44:29;;;;;;;10.38;2.63;;;;;;;15.58;100.00;98723.72;5043282;28;20040;-86
2022/10/07 10:46:58;;;;;;;9.55;2.33;;;;;;;15.54;100.00;98712.81;5059672;28;20029;-85
2022/10/07 10:49:36;;;;;;;9.75;2.53;;;;;;;15.39;100.00;98699.28;5060111;28;20025;-86
2022/10/07 10:52:29;;;;;;;7.13;2.80;;;;;;;15.59;100.00;98717.38;5057391;28;20045;-89
2022/10/07 10:55:13;;;;;;;8.07;2.13;;;;;;;15.45;100.00;98722.16;5059378;28;20048;-85
2022/10/07 10:57:45;;;;;;;;;;;;;;;15.68;100.00;98717.81;5061503;28;20024;-86
2022/10/07 11:00:16;;;;;;;8.15;2.30;;;;;;;15.84;100.00;98721.56;5064653;28;20321;-87
2022/10/07 11:02:42;;;;;;;9.60;3.50;;;;;;;15.86;100.00;98706.25;5060654;28;20033;-87
2022/10/07 11:05:31;;;;;;;12.18;2.42;;;;;;;16.14;100.00;98723.16;5060355;28;20064;-85
2022/10/07 11:08:16;;;;;;;10.50;2.70;;;;;;;16.41;100.00;98715.41;5065700;28;20078;-86
2022/10/07 11:11:02;;;;;;;7.03;2.40;;;;;;;16.69;100.00;98726.94;5062312;28;20389;-86
2022/10/07 11:13:47;;;;;;;10.23;2.08;;;;;;;16.27;100.00;98728.16;5060545;28;20033;-87
2022/10/07 11:16:21;;;;;;;7.68;1.90;;;;;;;16.33;100.00;98736.19;5062533;28;20036;-87
2022/10/07 11:19:00;;;;;;;6.50;2.75;;;;;;;15.94;100.00;98748.25;5059234;28;20053;-87
2022/10/07 11:21:34;;;;;;;7.95;2.22;;;;;;;15.80;100.00;98731.81;5068294;28;20032;-86
2022/10/07 11:24:14;;;;;;;6.45;2.22;;;;;;;16.09;100.00;98749.56;5049447;28;20053;-86
2022/10/07 11:26:44;;;;;;;12.82;2.75;;;;;;;16.15;100.00;98731.94;5067484;28;20387;-86
2022/10/07 11:29:37;;;;;;;14.65;2.90;;;;;;;16.11;100.00;98727.13;5064941;28;20028;-86
2022/10/07 11:32:09;;;;;;;6.07;2.13;;;;;;;16.06;100.00;98729.66;5062488;28;20024;-85
2022/10/07 11:34:55;;;;;;;9.23;2.40;;;;;;;16.09;100.00;98744.25;5060756;28;20390;-85
2022/10/07 11:37:20;;;;;;;8.05;2.53;;;;;;;15.93;100.00;98746.63;5056753;28;20102;-86
2022/10/07 11:39:48;;;;;;;8.35;2.45;;;;;;;15.69;100.00;98746.69;5059220;28;20029;-87
2022/10/07 11:42:18;;;;;;;10.27;2.80;;;;;;;15.41;100.00;98758.03;5061696;28;20033;-86
2022/10/07 11:45:19;;;;;;;9.43;2.70;;;;;;;15.44;100.00;98757.56;5066941;28;20074;-85
2022/10/07 11:48:07;;;;;;;9.60;2.55;;;;;;;14.93;100.00;98713.13;5031031;28;20037;-86
2022/10/07 11:50:59;;;;;;;11.15;3.58;;;;;;;15.17;100.00;98723.72;5059983;28;20056;-86